Weather at Temple University Heliport

Public forecast

Using degrees Fahrenheit for public forecast. Weather courtesy of forecast.io.

Closest aviation weather report (METAR) to Temple University Heliport

Closest report is Northeast Philadelphia Airport, 7.9 nm (14.6 km) NE. Retrieved 2022/01/22 20:54 UTC (56 minutes ago):

KPNE 222054Z 25003KT 10SM CLR 00/M19 A3025 RMK AO2 SLP244 T00001194 58028

Closest aviation forecast (TAF) to Temple University Heliport

Closest forecast is Northeast Philadelphia Airport, 7.9 nm (14.6 km) NE. Retrieved 2022/01/22 18:36 UTC (3 hours ago):

TAF KPNE 221733Z 2218/2318 VRB03KT P6SM SCT200 FM230600 25005KT P6SM SCT200 FM231400 26009KT P6SM SCT120 BKN200